sensor_id;sensor_type;location;lat;lon;timestamp;pressure;altitude;pressure_sealevel;temperature;humidity
48402;BME280;34201;52.438;16.744;2022-09-30T00:02:33;100105.53;;;6.33;100.00
48402;BME280;34201;52.438;16.744;2022-09-30T00:04:58;100096.06;;;6.35;100.00
48402;BME280;34201;52.438;16.744;2022-09-30T00:07:24;100083.38;;;6.26;100.00
48402;BME280;34201;52.438;16.744;2022-09-30T00:09:50;100098.72;;;6.29;100.00
48402;BME280;34201;52.438;16.744;2022-09-30T00:12:15;100102.97;;;6.33;100.00
48402;BME280;34201;52.438;16.744;2022-09-30T00:14:42;100133.66;;;6.44;100.00
48402;BME280;34201;52.438;16.744;2022-09-30T00:17:07;100120.91;;;6.34;100.00
48402;BME280;34201;52.438;16.744;2022-09-30T00:19:33;100131.06;;;6.45;100.00
48402;BME280;34201;52.438;16.744;2022-09-30T00:21:59;100136.94;;;6.55;100.00
48402;BME280;34201;52.438;16.744;2022-09-30T00:24:26;100134.25;;;6.63;100.00
48402;BME280;34201;52.438;16.744;2022-09-30T00:26:51;100122.31;;;6.59;100.00
48402;BME280;34201;52.438;16.744;2022-09-30T00:29:17;100129.16;;;6.60;100.00
48402;BME280;34201;52.438;16.744;2022-09-30T00:31:43;100140.19;;;6.66;100.00
48402;BME280;34201;52.438;16.744;2022-09-30T00:34:08;100128.25;;;6.64;100.00
48402;BME280;34201;52.438;16.744;2022-09-30T00:36:44;100143.50;;;6.76;100.00
48402;BME280;34201;52.438;16.744;2022-09-30T00:39:16;100134.06;;;6.77;100.00
48402;BME280;34201;52.438;16.744;2022-09-30T00:41:43;100120.44;;;6.72;100.00
48402;BME280;34201;52.438;16.744;2022-09-30T00:45:28;100119.53;;;6.76;100.00
48402;BME280;34201;52.438;16.744;2022-09-30T00:49:52;100120.41;;;6.73;100.00
48402;BME280;34201;52.438;16.744;2022-09-30T00:52:19;100126.38;;;6.75;100.00
48402;BME280;34201;52.438;16.744;2022-09-30T00:54:45;100127.22;;;6.76;100.00
48402;BME280;34201;52.438;16.744;2022-09-30T00:57:11;100117.06;;;6.68;100.00
48402;BME280;34201;52.438;16.744;2022-09-30T00:59:40;100115.28;;;6.70;100.00
48402;BME280;34201;52.438;16.744;2022-09-30T01:02:07;100117.06;;;6.68;100.00
48402;BME280;34201;52.438;16.744;2022-09-30T01:04:34;100114.59;;;6.62;100.00
48402;BME280;34201;52.438;16.744;2022-09-30T01:07:02;100128.06;;;6.76;100.00
48402;BME280;34201;52.438;16.744;2022-09-30T01:09:30;100118.72;;;6.71;100.00
48402;BME280;34201;52.438;16.744;2022-09-30T01:11:57;100124.72;;;6.71;100.00
48402;BME280;34201;52.438;16.744;2022-09-30T01:14:25;100124.63;;;6.77;100.00
48402;BME280;34201;52.438;16.744;2022-09-30T01:17:14;100134.06;;;6.77;100.00
48402;BME280;34201;52.438;16.744;2022-09-30T01:31:18;100108.06;;;6.97;100.00
48402;BME280;34201;52.438;16.744;2022-09-30T01:34:17;100097.81;;;6.94;100.00
48402;BME280;34201;52.438;16.744;2022-09-30T01:37:09;100108.09;;;6.94;100.00
48402;BME280;34201;52.438;16.744;2022-09-30T01:39:59;100118.38;;;6.95;100.00
48402;BME280;34201;52.438;16.744;2022-09-30T01:42:52;100134.50;;;7.05;100.00
48402;BME280;34201;52.438;16.744;2022-09-30T01:45:41;100147.28;;;7.10;100.00
48402;BME280;34201;52.438;16.744;2022-09-30T01:48:13;100142.25;;;7.02;100.00
48402;BME280;34201;52.438;16.744;2022-09-30T01:50:55;100153.31;;;7.07;100.00
48402;BME280;34201;52.438;16.744;2022-09-30T01:55:58;100167.78;;;7.14;100.00
48402;BME280;34201;52.438;16.744;2022-09-30T01:58:53;100161.53;;;7.31;100.00
48402;BME280;34201;52.438;16.744;2022-09-30T02:01:25;100138.66;;;7.14;100.00
48402;BME280;34201;52.438;16.744;2022-09-30T02:03:57;100130.97;;;7.12;100.00
48402;BME280;34201;52.438;16.744;2022-09-30T02:06:33;100123.88;;;7.27;100.00
48402;BME280;34201;52.438;16.744;2022-09-30T02:09:06;100117.97;;;7.20;100.00
48402;BME280;34201;52.438;16.744;2022-09-30T02:11:34;100100.06;;;7.15;100.00
48402;BME280;34201;52.438;16.744;2022-09-30T02:14:18;100099.19;;;7.16;100.00
48402;BME280;34201;52.438;16.744;2022-09-30T02:17:14;100082.91;;;7.16;100.00
48402;BME280;34201;52.438;16.744;2022-09-30T02:19:45;100061.53;;;7.12;100.00
48402;BME280;34201;52.438;16.744;2022-09-30T02:22:18;100051.91;;;7.24;100.00
48402;BME280;34201;52.438;16.744;2022-09-30T02:24:46;100040.91;;;7.15;100.00
48402;BME280;34201;52.438;16.744;2022-09-30T02:27:18;100039.97;;;7.21;100.00
48402;BME280;34201;52.438;16.744;2022-09-30T02:29:50;100032.38;;;7.15;100.00
48402;BME280;34201;52.438;16.744;2022-09-30T02:32:24;100064.91;;;7.14;100.00
48402;BME280;34201;52.438;16.744;2022-09-30T02:34:57;100074.50;;;7.05;100.00
48402;BME280;34201;52.438;16.744;2022-09-30T02:37:47;100082.13;;;7.12;100.00
48402;BME280;34201;52.438;16.744;2022-09-30T02:42:45;100086.34;;;7.16;100.00
48402;BME280;34201;52.438;16.744;2022-09-30T02:45:14;100092.34;;;7.15;100.00
48402;BME280;34201;52.438;16.744;2022-09-30T02:50:40;100107.16;;;7.51;100.00
48402;BME280;34201;52.438;16.744;2022-09-30T02:53:21;100072.88;;;7.50;100.00
48402;BME280;34201;52.438;16.744;2022-09-30T02:56:03;100050.44;;;7.59;100.00
48402;BME280;34201;52.438;16.744;2022-09-30T02:58:32;100046.28;;;7.51;100.00
48402;BME280;34201;52.438;16.744;2022-09-30T03:01:04;100036.06;;;7.47;100.00
48402;BME280;34201;52.438;16.744;2022-09-30T03:03:37;100026.72;;;7.41;100.00
48402;BME280;34201;52.438;16.744;2022-09-30T03:06:03;100033.91;;;7.24;100.00
48402;BME280;34201;52.438;16.744;2022-09-30T03:08:29;100037.28;;;7.26;100.00
48402;BME280;34201;52.438;16.744;2022-09-30T03:10:55;100041.44;;;7.34;100.00
48402;BME280;34201;52.438;16.744;2022-09-30T03:13:46;100047.16;;;7.50;100.00
48402;BME280;34201;52.438;16.744;2022-09-30T03:16:51;100027.47;;;7.48;100.00
48402;BME280;34201;52.438;16.744;2022-09-30T03:27:38;100102.44;;;7.28;100.00
48402;BME280;34201;52.438;16.744;2022-09-30T03:30:13;100114.50;;;7.23;100.00
48402;BME280;34201;52.438;16.744;2022-09-30T03:35:40;100137.47;;;7.35;100.00
48402;BME280;34201;52.438;16.744;2022-09-30T03:38:31;100132.38;;;7.32;100.00
48402;BME280;34201;52.438;16.744;2022-09-30T03:41:03;100134.88;;;7.35;100.00
48402;BME280;34201;52.438;16.744;2022-09-30T03:43:36;100138.28;;;7.35;100.00
48402;BME280;34201;52.438;16.744;2022-09-30T03:46:10;100129.75;;;7.35;100.00
48402;BME280;34201;52.438;16.744;2022-09-30T03:48:40;100131.53;;;7.30;100.00
48402;BME280;34201;52.438;16.744;2022-09-30T03:51:06;100135.94;;;7.25;100.00
48402;BME280;34201;52.438;16.744;2022-09-30T03:53:38;100151.13;;;7.37;100.00
48402;BME280;34201;52.438;16.744;2022-09-30T03:56:04;100140.03;;;7.35;100.00
48402;BME280;34201;52.438;16.744;2022-09-30T03:58:29;100146.97;;;7.30;100.00
48402;BME280;34201;52.438;16.744;2022-09-30T04:00:54;100169.13;;;7.37;100.00
48402;BME280;34201;52.438;16.744;2022-09-30T04:03:21;100180.22;;;7.42;100.00
48402;BME280;34201;52.438;16.744;2022-09-30T04:05:48;100180.28;;;7.38;100.00
48402;BME280;34201;52.438;16.744;2022-09-30T04:08:14;100167.44;;;7.38;100.00
48402;BME280;34201;52.438;16.744;2022-09-30T04:10:40;100150.31;;;7.35;100.00
48402;BME280;34201;52.438;16.744;2022-09-30T04:13:07;100161.91;;;7.59;100.00
48402;BME280;34201;52.438;16.744;2022-09-30T04:15:33;100120.88;;;7.53;100.00
48402;BME280;34201;52.438;16.744;2022-09-30T04:17:58;100113.84;;;7.63;100.00
48402;BME280;34201;52.438;16.744;2022-09-30T04:20:24;100122.38;;;7.63;100.00
48402;BME280;34201;52.438;16.744;2022-09-30T04:22:49;100099.44;;;7.51;100.00
48402;BME280;34201;52.438;16.744;2022-09-30T04:25:15;100119.19;;;7.50;100.00
48402;BME280;34201;52.438;16.744;2022-09-30T04:27:40;100087.75;;;7.33;100.00
48402;BME280;34201;52.438;16.744;2022-09-30T04:30:06;100090.31;;;7.33;100.00
48402;BME280;34201;52.438;16.744;2022-09-30T04:32:31;100091.19;;;7.33;100.00
48402;BME280;34201;52.438;16.744;2022-09-30T04:34:56;100093.00;;;7.27;100.00
48402;BME280;34201;52.438;16.744;2022-09-30T04:37:33;100104.34;;;7.16;100.00
48402;BME280;34201;52.438;16.744;2022-09-30T04:40:00;100133.50;;;7.15;100.00
48402;BME280;34201;52.438;16.744;2022-09-30T04:42:26;100138.56;;;7.18;100.00
48402;BME280;34201;52.438;16.744;2022-09-30T04:45:00;100143.84;;;7.09;100.00
48402;BME280;34201;52.438;16.744;2022-09-30T04:47:26;100165.28;;;7.10;100.00
48402;BME280;34201;52.438;16.744;2022-09-30T04:49:51;100157.66;;;7.05;100.00
48402;BME280;34201;52.438;16.744;2022-09-30T04:52:17;100172.94;;;7.13;100.00
48402;BME280;34201;52.438;16.744;2022-09-30T04:54:42;100172.94;;;7.14;100.00
48402;BME280;34201;52.438;16.744;2022-09-30T04:57:07;100155.13;;;7.00;100.00
48402;BME280;34201;52.438;16.744;2022-09-30T04:59:33;100144.97;;;6.93;100.00
48402;BME280;34201;52.438;16.744;2022-09-30T05:01:58;100152.72;;;6.88;100.00
48402;BME280;34201;52.438;16.744;2022-09-30T05:04:23;100144.31;;;6.78;100.00
48402;BME280;34201;52.438;16.744;2022-09-30T05:06:49;100150.34;;;6.77;100.00
48402;BME280;34201;52.438;16.744;2022-09-30T05:09:14;100153.81;;;6.73;100.00
48402;BME280;34201;52.438;16.744;2022-09-30T05:11:39;100146.19;;;6.65;100.00
48402;BME280;34201;52.438;16.744;2022-09-30T05:14:06;100251.28;;;7.49;100.00
48402;BME280;34201;52.438;16.744;2022-09-30T05:16:34;100213.16;;;7.18;100.00
48402;BME280;34201;52.438;16.744;2022-09-30T05:19:00;100197.28;;;6.90;100.00
48402;BME280;34201;52.438;16.744;2022-09-30T05:21:25;100203.34;;;6.84;100.00
48402;BME280;34201;52.438;16.744;2022-09-30T05:23:52;100221.34;;;6.84;100.00
48402;BME280;34201;52.438;16.744;2022-09-30T05:26:17;100229.06;;;6.84;100.00
48402;BME280;34201;52.438;16.744;2022-09-30T05:28:43;100230.94;;;6.68;100.00
48402;BME280;34201;52.438;16.744;2022-09-30T05:31:09;100255.72;;;6.76;100.00
48402;BME280;34201;52.438;16.744;2022-09-30T05:33:36;100272.84;;;6.75;100.00
48402;BME280;34201;52.438;16.744;2022-09-30T05:36:07;100275.41;;;6.77;100.00
48402;BME280;34201;52.438;16.744;2022-09-30T05:38:33;100266.03;;;6.71;100.00
48402;BME280;34201;52.438;16.744;2022-09-30T05:41:07;100271.31;;;6.59;100.00
48402;BME280;34201;52.438;16.744;2022-09-30T05:43:36;100279.91;;;6.59;100.00
48402;BME280;34201;52.438;16.744;2022-09-30T05:46:02;100285.03;;;6.61;100.00
48402;BME280;34201;52.438;16.744;2022-09-30T05:48:31;100278.19;;;6.58;100.00
48402;BME280;34201;52.438;16.744;2022-09-30T05:50:57;100270.50;;;6.57;100.00
48402;BME280;34201;52.438;16.744;2022-09-30T05:53:24;100275.59;;;6.60;100.00
48402;BME280;34201;52.438;16.744;2022-09-30T05:55:50;100302.09;;;6.65;100.00
48402;BME280;34201;52.438;16.744;2022-09-30T05:58:16;100304.63;;;6.70;100.00
48402;BME280;34201;52.438;16.744;2022-09-30T06:00:43;100305.41;;;6.76;100.00
48402;BME280;34201;52.438;16.744;2022-09-30T06:03:09;100300.25;;;6.76;100.00
48402;BME280;34201;52.438;16.744;2022-09-30T06:05:35;100303.63;;;6.83;100.00
48402;BME280;34201;52.438;16.744;2022-09-30T06:08:01;100298.38;;;6.91;100.00
48402;BME280;34201;52.438;16.744;2022-09-30T06:10:27;100299.94;;;7.02;100.00
48402;BME280;34201;52.438;16.744;2022-09-30T06:12:52;100295.47;;;7.17;100.00
48402;BME280;34201;52.438;16.744;2022-09-30T06:15:17;100297.84;;;7.32;100.00
48402;BME280;34201;52.438;16.744;2022-09-30T06:17:43;100301.94;;;7.46;100.00
48402;BME280;34201;52.438;16.744;2022-09-30T06:20:09;100283.03;;;7.48;100.00
48402;BME280;34201;52.438;16.744;2022-09-30T06:22:34;100281.19;;;7.57;100.00
48402;BME280;34201;52.438;16.744;2022-09-30T06:25:02;100276.72;;;7.68;100.00
48402;BME280;34201;52.438;16.744;2022-09-30T06:27:28;100266.31;;;7.76;100.00
48402;BME280;34201;52.438;16.744;2022-09-30T06:29:53;100249.00;;;7.85;100.00
48402;BME280;34201;52.438;16.744;2022-09-30T06:32:18;100246.22;;;7.98;100.00
48402;BME280;34201;52.438;16.744;2022-09-30T06:34:44;100211.06;;;7.95;100.00
48402;BME280;34201;52.438;16.744;2022-09-30T06:37:09;100209.00;;;8.13;100.00
48402;BME280;34201;52.438;16.744;2022-09-30T06:39:37;100182.34;;;8.15;100.00
48402;BME280;34201;52.438;16.744;2022-09-30T06:42:05;100161.72;;;8.18;100.00
48402;BME280;34201;52.438;16.744;2022-09-30T06:44:32;100153.75;;;8.29;100.00
48402;BME280;34201;52.438;16.744;2022-09-30T06:46:57;100130.00;;;8.15;100.00
48402;BME280;34201;52.438;16.744;2022-09-30T06:49:24;100104.22;;;8.16;100.00
48402;BME280;34201;52.438;16.744;2022-09-30T06:51:50;100095.59;;;8.19;100.00
48402;BME280;34201;52.438;16.744;2022-09-30T06:54:16;100071.94;;;8.00;100.00
48402;BME280;34201;52.438;16.744;2022-09-30T06:56:43;100076.06;;;8.09;100.00
48402;BME280;34201;52.438;16.744;2022-09-30T06:59:10;100092.03;;;8.25;100.00
48402;BME280;34201;52.438;16.744;2022-09-30T07:01:35;100088.59;;;8.26;100.00
48402;BME280;34201;52.438;16.744;2022-09-30T07:04:00;100083.53;;;8.19;100.00
48402;BME280;34201;52.438;16.744;2022-09-30T07:06:32;100091.06;;;8.30;100.00
48402;BME280;34201;52.438;16.744;2022-09-30T07:08:58;100067.00;;;8.31;100.00
48402;BME280;34201;52.438;16.744;2022-09-30T07:11:24;100062.66;;;8.33;100.00
48402;BME280;34201;52.438;16.744;2022-09-30T07:13:49;100055.78;;;8.34;100.00
48402;BME280;34201;52.438;16.744;2022-09-30T07:16:18;100064.16;;;8.42;100.00
48402;BME280;34201;52.438;16.744;2022-09-30T07:18:44;100072.75;;;8.43;100.00
48402;BME280;34201;52.438;16.744;2022-09-30T07:21:10;100077.03;;;8.42;100.00
48402;BME280;34201;52.438;16.744;2022-09-30T07:23:38;100075.28;;;8.46;100.00
48402;BME280;34201;52.438;16.744;2022-09-30T07:26:16;100071.66;;;8.54;100.00
48402;BME280;34201;52.438;16.744;2022-09-30T07:28:41;100067.97;;;8.66;100.00
48402;BME280;34201;52.438;16.744;2022-09-30T07:31:11;100060.91;;;8.75;100.00
48402;BME280;34201;52.438;16.744;2022-09-30T07:33:36;100049.59;;;8.80;100.00
48402;BME280;34201;52.438;16.744;2022-09-30T07:36:03;100050.19;;;8.92;100.00
48402;BME280;34201;52.438;16.744;2022-09-30T07:38:29;100052.66;;;8.96;100.00
48402;BME280;34201;52.438;16.744;2022-09-30T07:41:02;100029.69;;;8.85;100.00
48402;BME280;34201;52.438;16.744;2022-09-30T07:43:29;100040.53;;;9.00;100.00
48402;BME280;34201;52.438;16.744;2022-09-30T07:46:20;100041.25;;;9.05;100.00
48402;BME280;34201;52.438;16.744;2022-09-30T07:48:49;100041.69;;;9.22;100.00
48402;BME280;34201;52.438;16.744;2022-09-30T07:51:26;100060.41;;;9.31;100.00
48402;BME280;34201;52.438;16.744;2022-09-30T07:53:54;100077.88;;;9.52;100.00
48402;BME280;34201;52.438;16.744;2022-09-30T07:56:20;100070.63;;;9.67;100.00
48402;BME280;34201;52.438;16.744;2022-09-30T07:58:47;100054.63;;;9.85;100.00
48402;BME280;34201;52.438;16.744;2022-09-30T08:01:13;100040.84;;;9.85;100.00
48402;BME280;34201;52.438;16.744;2022-09-30T08:03:41;100039.94;;;9.87;100.00
48402;BME280;34201;52.438;16.744;2022-09-30T08:06:15;100052.34;;;10.04;100.00
48402;BME280;34201;52.438;16.744;2022-09-30T08:08:42;100059.06;;;10.12;100.00
48402;BME280;34201;52.438;16.744;2022-09-30T08:11:08;100061.25;;;10.25;100.00
48402;BME280;34201;52.438;16.744;2022-09-30T08:13:34;100045.84;;;10.21;100.00
48402;BME280;34201;52.438;16.744;2022-09-30T08:15:59;100046.34;;;10.35;100.00
48402;BME280;34201;52.438;16.744;2022-09-30T08:18:25;100051.72;;;10.56;100.00
48402;BME280;34201;52.438;16.744;2022-09-30T08:20:51;100048.72;;;10.41;100.00
48402;BME280;34201;52.438;16.744;2022-09-30T08:23:17;100056.94;;;10.54;100.00
48402;BME280;34201;52.438;16.744;2022-09-30T08:25:42;100072.41;;;10.83;100.00
48402;BME280;34201;52.438;16.744;2022-09-30T08:28:07;100065.38;;;10.88;100.00
48402;BME280;34201;52.438;16.744;2022-09-30T08:30:36;100060.94;;;11.18;99.97
48402;BME280;34201;52.438;16.744;2022-09-30T08:33:03;100042.66;;;11.48;97.46
48402;BME280;34201;52.438;16.744;2022-09-30T08:35:33;100041.13;;;11.91;94.84
48402;BME280;34201;52.438;16.744;2022-09-30T08:37:59;100023.06;;;12.36;91.99
48402;BME280;34201;52.438;16.744;2022-09-30T08:40:31;99978.84;;;12.81;88.74
48402;BME280;34201;52.438;16.744;2022-09-30T08:43:20;99966.94;;;13.18;86.84
48402;BME280;34201;52.438;16.744;2022-09-30T08:48:47;99981.66;;;13.78;85.65
48402;BME280;34201;52.438;16.744;2022-09-30T08:51:37;99959.09;;;13.79;83.84
48402;BME280;34201;52.438;16.744;2022-09-30T08:54:10;99911.38;;;13.99;81.01
48402;BME280;34201;52.438;16.744;2022-09-30T08:56:37;99913.47;;;14.10;80.12
48402;BME280;34201;52.438;16.744;2022-09-30T08:59:39;99954.16;;;14.82;80.22
48402;BME280;34201;52.438;16.744;2022-09-30T09:04:33;99932.97;;;14.55;80.61
48402;BME280;34201;52.438;16.744;2022-09-30T09:12:52;99879.50;;;13.95;78.20
48402;BME280;34201;52.438;16.744;2022-09-30T09:18:45;99931.94;;;13.67;80.06
48402;BME280;34201;52.438;16.744;2022-09-30T09:21:29;99983.88;;;13.86;81.45
48402;BME280;34201;52.438;16.744;2022-09-30T09:24:00;99940.81;;;13.80;79.69
48402;BME280;34201;52.438;16.744;2022-09-30T09:26:29;99924.59;;;13.94;79.07
48402;BME280;34201;52.438;16.744;2022-09-30T09:31:52;100012.53;;;13.84;82.74
48402;BME280;34201;52.438;16.744;2022-09-30T09:34:18;99965.94;;;13.99;80.34
48402;BME280;34201;52.438;16.744;2022-09-30T09:37:15;99983.94;;;13.84;82.24
48402;BME280;34201;52.438;16.744;2022-09-30T09:39:54;99973.22;;;13.73;82.37
48402;BME280;34201;52.438;16.744;2022-09-30T09:42:38;99954.72;;;13.79;80.96
48402;BME280;34201;52.438;16.744;2022-09-30T09:45:22;99944.00;;;13.87;79.93
48402;BME280;34201;52.438;16.744;2022-09-30T09:47:51;99921.56;;;13.84;79.53
48402;BME280;34201;52.438;16.744;2022-09-30T09:50:54;99907.09;;;13.98;77.88
48402;BME280;34201;52.438;16.744;2022-09-30T09:53:46;99862.84;;;13.99;76.16
48402;BME280;34201;52.438;16.744;2022-09-30T09:56:18;99876.53;;;14.38;75.50
48402;BME280;34201;52.438;16.744;2022-09-30T10:01:39;99846.03;;;14.24;74.44
48402;BME280;34201;52.438;16.744;2022-09-30T10:04:19;99848.00;;;14.36;74.50
48402;BME280;34201;52.438;16.744;2022-09-30T10:06:53;99876.09;;;14.47;75.72
48402;BME280;34201;52.438;16.744;2022-09-30T10:14:46;99879.22;;;14.54;75.46
48402;BME280;34201;52.438;16.744;2022-09-30T10:17:27;99854.44;;;14.29;74.82
48402;BME280;34201;52.438;16.744;2022-09-30T10:22:28;99906.25;;;14.86;76.02
48402;BME280;34201;52.438;16.744;2022-09-30T10:28:00;99849.31;;;14.63;75.27
48402;BME280;34201;52.438;16.744;2022-09-30T10:32:55;99857.31;;;14.93;74.83
48402;BME280;34201;52.438;16.744;2022-09-30T10:35:23;99815.59;;;14.26;74.65
48402;BME280;34201;52.438;16.744;2022-09-30T10:37:53;99823.75;;;14.18;74.43
48402;BME280;34201;52.438;16.744;2022-09-30T10:40:22;99851.00;;;14.29;75.02
48402;BME280;34201;52.438;16.744;2022-09-30T10:42:52;99879.69;;;14.45;75.34
48402;BME280;34201;52.438;16.744;2022-09-30T10:45:20;99838.69;;;14.15;74.24
48402;BME280;34201;52.438;16.744;2022-09-30T10:48:05;99845.72;;;13.95;75.17
48402;BME280;34201;52.438;16.744;2022-09-30T10:50:32;99821.22;;;13.82;74.64
48402;BME280;34201;52.438;16.744;2022-09-30T10:53:19;99854.50;;;13.74;74.94
48402;BME280;34201;52.438;16.744;2022-09-30T10:55:49;99887.13;;;13.81;76.08
48402;BME280;34201;52.438;16.744;2022-09-30T10:58:44;99841.91;;;13.66;74.91
48402;BME280;34201;52.438;16.744;2022-09-30T11:01:24;99899.13;;;13.64;76.86
48402;BME280;34201;52.438;16.744;2022-09-30T11:04:06;99988.28;;;14.22;78.21
48402;BME280;34201;52.438;16.744;2022-09-30T11:06:37;99941.81;;;15.37;74.20
48402;BME280;34201;52.438;16.744;2022-09-30T11:09:30;99898.66;;;15.65;73.49
48402;BME280;34201;52.438;16.744;2022-09-30T11:12:19;99869.28;;;16.39;71.30
48402;BME280;34201;52.438;16.744;2022-09-30T11:17:26;99831.88;;;17.27;69.24
48402;BME280;34201;52.438;16.744;2022-09-30T11:20:18;99714.41;;;16.69;66.71
48402;BME280;34201;52.438;16.744;2022-09-30T11:22:53;99737.06;;;16.54;66.80
48402;BME280;34201;52.438;16.744;2022-09-30T11:25:29;99753.53;;;16.84;66.25
48402;BME280;34201;52.438;16.744;2022-09-30T11:28:27;99733.31;;;16.87;65.16
48402;BME280;34201;52.438;16.744;2022-09-30T11:37:07;99707.13;;;16.89;64.10
48402;BME280;34201;52.438;16.744;2022-09-30T11:39:50;99694.81;;;16.91;64.42
48402;BME280;34201;52.438;16.744;2022-09-30T11:42:41;99673.22;;;15.88;66.09
48402;BME280;34201;52.438;16.744;2022-09-30T11:48:18;99721.34;;;16.27;66.20
48402;BME280;34201;52.438;16.744;2022-09-30T11:50:51;99681.47;;;15.50;66.92
48402;BME280;34201;52.438;16.744;2022-09-30T11:53:45;99787.97;;;15.56;68.82
48402;BME280;34201;52.438;16.744;2022-09-30T11:56:21;99796.00;;;15.51;69.68
48402;BME280;34201;52.438;16.744;2022-09-30T11:58:50;99834.72;;;15.43;70.80
48402;BME280;34201;52.438;16.744;2022-09-30T12:01:24;99797.28;;;15.12;71.18
48402;BME280;34201;52.438;16.744;2022-09-30T12:04:02;99840.88;;;15.09;71.81
48402;BME280;34201;52.438;16.744;2022-09-30T12:06:34;99826.09;;;15.09;71.04
48402;BME280;34201;52.438;16.744;2022-09-30T12:09:08;99815.06;;;14.88;71.99
48402;BME280;34201;52.438;16.744;2022-09-30T12:11:51;99799.94;;;14.61;71.93
48402;BME280;34201;52.438;16.744;2022-09-30T12:14:27;99854.00;;;15.07;72.84
48402;BME280;34201;52.438;16.744;2022-09-30T12:17:30;99836.84;;;15.67;70.47
48402;BME280;34201;52.438;16.744;2022-09-30T12:20:14;99748.19;;;15.52;69.25
48402;BME280;34201;52.438;16.744;2022-09-30T12:22:43;99746.19;;;15.42;69.09
48402;BME280;34201;52.438;16.744;2022-09-30T12:25:17;99746.03;;;15.29;69.51
48402;BME280;34201;52.438;16.744;2022-09-30T12:31:02;99777.78;;;15.03;70.08
48402;BME280;34201;52.438;16.744;2022-09-30T12:33:36;99735.88;;;14.92;69.20
48402;BME280;34201;52.438;16.744;2022-09-30T12:36:19;99690.75;;;14.60;68.26
48402;BME280;34201;52.438;16.744;2022-09-30T12:41:28;99758.41;;;14.60;69.79
48402;BME280;34201;52.438;16.744;2022-09-30T12:44:13;99748.28;;;14.53;69.58
48402;BME280;34201;52.438;16.744;2022-09-30T12:49:24;99789.84;;;14.22;70.93
48402;BME280;34201;52.438;16.744;2022-09-30T12:52:03;99821.91;;;14.38;71.17
48402;BME280;34201;52.438;16.744;2022-09-30T12:54:46;99876.69;;;14.35;73.39
48402;BME280;34201;52.438;16.744;2022-09-30T12:57:29;99877.38;;;14.56;72.47
48402;BME280;34201;52.438;16.744;2022-09-30T13:03:04;99838.03;;;15.61;69.80
48402;BME280;34201;52.438;16.744;2022-09-30T13:10:58;99772.06;;;16.21;67.16
48402;BME280;34201;52.438;16.744;2022-09-30T13:13:26;99700.75;;;16.37;64.93
48402;BME280;34201;52.438;16.744;2022-09-30T13:16:03;99712.72;;;16.39;65.58
48402;BME280;34201;52.438;16.744;2022-09-30T13:23:42;99664.34;;;16.91;61.92
48402;BME280;34201;52.438;16.744;2022-09-30T13:31:29;99699.88;;;16.65;63.19
48402;BME280;34201;52.438;16.744;2022-09-30T13:39:23;99665.50;;;16.30;62.29
48402;BME280;34201;52.438;16.744;2022-09-30T13:48:26;99761.75;;;15.43;66.84
48402;BME280;34201;52.438;16.744;2022-09-30T13:52:48;99857.31;;;14.93;70.75
48402;BME280;34201;52.438;16.744;2022-09-30T13:55:19;99850.41;;;14.92;70.24
48402;BME280;34201;52.438;16.744;2022-09-30T13:58:15;99850.16;;;14.81;70.92
48402;BME280;34201;52.438;16.744;2022-09-30T14:17:53;99648.00;;;15.88;62.52
48402;BME280;34201;52.438;16.744;2022-09-30T14:23:17;99765.88;;;15.78;65.71
48402;BME280;34201;52.438;16.744;2022-09-30T14:28:39;99835.78;;;15.39;68.57
48402;BME280;34201;52.438;16.744;2022-09-30T14:31:12;99833.75;;;15.28;69.22
48402;BME280;34201;52.438;16.744;2022-09-30T14:33:40;99864.09;;;15.29;69.82
48402;BME280;34201;52.438;16.744;2022-09-30T14:36:13;99860.31;;;15.51;69.21
48402;BME280;34201;52.438;16.744;2022-09-30T14:38:43;99808.97;;;15.21;69.14
48402;BME280;34201;52.438;16.744;2022-09-30T14:41:15;99820.41;;;15.34;68.97
48402;BME280;34201;52.438;16.744;2022-09-30T14:43:43;99819.00;;;15.45;68.83
48402;BME280;34201;52.438;16.744;2022-09-30T14:49:01;99825.28;;;15.40;69.51
48402;BME280;34201;52.438;16.744;2022-09-30T14:51:35;99796.22;;;15.32;68.36
48402;BME280;34201;52.438;16.744;2022-09-30T14:54:02;99785.78;;;15.16;68.29
48402;BME280;34201;52.438;16.744;2022-09-30T14:56:34;99793.50;;;15.18;68.20
48402;BME280;34201;52.438;16.744;2022-09-30T14:59:14;99768.16;;;15.05;67.80
48402;BME280;34201;52.438;16.744;2022-09-30T15:01:49;99831.38;;;15.08;69.90
48402;BME280;34201;52.438;16.744;2022-09-30T15:04:18;99825.00;;;14.97;69.85
48402;BME280;34201;52.438;16.744;2022-09-30T15:06:54;99822.88;;;14.88;69.48
48402;BME280;34201;52.438;16.744;2022-09-30T15:09:51;99852.84;;;14.95;70.09
48402;BME280;34201;52.438;16.744;2022-09-30T15:12:21;99898.88;;;14.95;71.60
48402;BME280;34201;52.438;16.744;2022-09-30T15:14:57;99904.47;;;14.87;71.87
48402;BME280;34201;52.438;16.744;2022-09-30T15:17:29;99928.50;;;14.92;72.38
48402;BME280;34201;52.438;16.744;2022-09-30T15:20:29;99926.31;;;14.84;72.82
48402;BME280;34201;52.438;16.744;2022-09-30T15:23:13;99955.31;;;14.77;73.38
48402;BME280;34201;52.438;16.744;2022-09-30T15:25:45;99995.44;;;14.53;76.12
48402;BME280;34201;52.438;16.744;2022-09-30T15:28:13;99959.81;;;14.55;74.68
48402;BME280;34201;52.438;16.744;2022-09-30T15:30:39;99954.84;;;14.51;74.89
48402;BME280;34201;52.438;16.744;2022-09-30T15:33:22;100012.41;;;14.43;76.35
48402;BME280;34201;52.438;16.744;2022-09-30T15:35:50;100037.13;;;14.34;77.41